sensor_id;sensor_type;location;lat;lon;timestamp;pressure;altitude;pressure_sealevel;temperature;humidity
34931;BME280;21134;49.646;8.560;2023-02-23T00:01:41;100132.63;;;8.66;100.00
34931;BME280;21134;49.646;8.560;2023-02-23T00:04:08;100136.84;;;8.67;100.00
34931;BME280;21134;49.646;8.560;2023-02-23T00:06:35;100137.69;;;8.67;100.00
34931;BME280;21134;49.646;8.560;2023-02-23T00:09:03;100135.16;;;8.67;100.00
34931;BME280;21134;49.646;8.560;2023-02-23T00:11:36;100135.16;;;8.67;100.00
34931;BME280;21134;49.646;8.560;2023-02-23T00:14:03;100124.94;;;8.67;100.00
34931;BME280;21134;49.646;8.560;2023-02-23T00:16:30;100124.94;;;8.67;100.00
34931;BME280;21134;49.646;8.560;2023-02-23T00:18:58;100130.91;;;8.66;100.00
34931;BME280;21134;49.646;8.560;2023-02-23T00:21:28;100134.31;;;8.65;100.00
34931;BME280;21134;49.646;8.560;2023-02-23T00:23:58;100133.47;;;8.66;100.00
34931;BME280;21134;49.646;8.560;2023-02-23T00:26:27;100132.63;;;8.66;100.00
34931;BME280;21134;49.646;8.560;2023-02-23T00:28:56;100134.28;;;8.64;100.00
34931;BME280;21134;49.646;8.560;2023-02-23T00:31:24;100136.84;;;8.64;100.00
34931;BME280;21134;49.646;8.560;2023-02-23T00:33:51;100138.56;;;8.66;100.00
34931;BME280;21134;49.646;8.560;2023-02-23T00:36:22;100141.09;;;8.68;100.00
34931;BME280;21134;49.646;8.560;2023-02-23T00:38:51;100135.16;;;8.67;100.00
34931;BME280;21134;49.646;8.560;2023-02-23T00:41:19;100128.34;;;8.68;100.00
34931;BME280;21134;49.646;8.560;2023-02-23T00:43:48;100121.56;;;8.67;100.00
34931;BME280;21134;49.646;8.560;2023-02-23T00:46:15;100129.19;;;8.67;100.00
34931;BME280;21134;49.646;8.560;2023-02-23T00:48:43;100130.06;;;8.67;100.00
34931;BME280;21134;49.646;8.560;2023-02-23T00:51:09;100130.91;;;8.68;100.00
34931;BME280;21134;49.646;8.560;2023-02-23T00:53:37;100129.22;;;8.68;100.00
34931;BME280;21134;49.646;8.560;2023-02-23T00:56:05;100130.91;;;8.68;100.00
34931;BME280;21134;49.646;8.560;2023-02-23T00:58:31;100131.75;;;8.70;100.00
34931;BME280;21134;49.646;8.560;2023-02-23T01:00:58;100129.22;;;8.70;100.00
34931;BME280;21134;49.646;8.560;2023-02-23T01:03:26;100130.06;;;8.70;100.00
34931;BME280;21134;49.646;8.560;2023-02-23T01:05:52;100125.81;;;8.69;100.00
34931;BME280;21134;49.646;8.560;2023-02-23T01:08:20;100123.25;;;8.71;100.00
34931;BME280;21134;49.646;8.560;2023-02-23T01:10:48;100124.09;;;8.70;100.00
34931;BME280;21134;49.646;8.560;2023-02-23T01:13:18;100125.78;;;8.71;100.00
34931;BME280;21134;49.646;8.560;2023-02-23T01:15:46;100124.94;;;8.70;100.00
34931;BME280;21134;49.646;8.560;2023-02-23T01:18:13;100124.09;;;8.70;100.00
34931;BME280;21134;49.646;8.560;2023-02-23T01:20:40;100128.34;;;8.71;100.00
34931;BME280;21134;49.646;8.560;2023-02-23T01:23:08;100131.75;;;8.70;100.00
34931;BME280;21134;49.646;8.560;2023-02-23T01:25:37;100124.94;;;8.70;100.00
34931;BME280;21134;49.646;8.560;2023-02-23T01:28:05;100124.13;;;8.71;100.00
34931;BME280;21134;49.646;8.560;2023-02-23T01:30:33;100124.09;;;8.70;100.00
34931;BME280;21134;49.646;8.560;2023-02-23T01:32:59;100125.81;;;8.69;100.00
34931;BME280;21134;49.646;8.560;2023-02-23T01:35:27;100125.81;;;8.69;100.00
34931;BME280;21134;49.646;8.560;2023-02-23T01:37:53;100128.38;;;8.69;100.00
34931;BME280;21134;49.646;8.560;2023-02-23T01:40:22;100121.56;;;8.68;100.00
34931;BME280;21134;49.646;8.560;2023-02-23T01:42:54;100123.25;;;8.68;100.00
34931;BME280;21134;49.646;8.560;2023-02-23T01:45:29;100120.69;;;8.68;100.00
34931;BME280;21134;49.646;8.560;2023-02-23T01:47:58;100108.81;;;8.68;100.00
34931;BME280;21134;49.646;8.560;2023-02-23T01:50:29;100119.03;;;8.68;100.00
34931;BME280;21134;49.646;8.560;2023-02-23T01:52:57;100117.31;;;8.69;100.00
34931;BME280;21134;49.646;8.560;2023-02-23T01:55:24;100116.47;;;8.68;100.00
34931;BME280;21134;49.646;8.560;2023-02-23T01:57:57;100114.75;;;8.67;100.00
34931;BME280;21134;49.646;8.560;2023-02-23T02:00:27;100113.91;;;8.65;100.00
34931;BME280;21134;49.646;8.560;2023-02-23T02:02:57;100116.47;;;8.65;100.00
34931;BME280;21134;49.646;8.560;2023-02-23T02:05:24;100119.00;;;8.65;100.00
34931;BME280;21134;49.646;8.560;2023-02-23T02:07:52;100106.25;;;8.65;100.00
34931;BME280;21134;49.646;8.560;2023-02-23T02:10:25;100110.50;;;8.65;100.00
34931;BME280;21134;49.646;8.560;2023-02-23T02:13:05;100112.19;;;8.64;100.00
34931;BME280;21134;49.646;8.560;2023-02-23T02:15:37;100106.25;;;8.64;100.00
34931;BME280;21134;49.646;8.560;2023-02-23T02:18:11;100107.94;;;8.65;100.00
34931;BME280;21134;49.646;8.560;2023-02-23T02:20:57;100111.38;;;8.65;100.00
34931;BME280;21134;49.646;8.560;2023-02-23T02:23:53;100102.00;;;8.64;100.00
34931;BME280;21134;49.646;8.560;2023-02-23T02:26:32;100102.00;;;8.64;100.00
34931;BME280;21134;49.646;8.560;2023-02-23T02:29:39;100103.72;;;8.65;100.00
34931;BME280;21134;49.646;8.560;2023-02-23T02:32:26;100096.06;;;8.65;100.00
34931;BME280;21134;49.646;8.560;2023-02-23T02:35:30;100096.91;;;8.66;100.00
34931;BME280;21134;49.646;8.560;2023-02-23T02:38:21;100093.50;;;8.65;100.00
34931;BME280;21134;49.646;8.560;2023-02-23T02:40:53;100096.91;;;8.66;100.00
34931;BME280;21134;49.646;8.560;2023-02-23T02:43:29;100094.38;;;8.69;100.00
34931;BME280;21134;49.646;8.560;2023-02-23T02:46:03;100089.25;;;8.67;100.00
34931;BME280;21134;49.646;8.560;2023-02-23T02:48:37;100095.19;;;8.68;100.00
34931;BME280;21134;49.646;8.560;2023-02-23T02:51:12;100090.09;;;8.69;100.00
34931;BME280;21134;49.646;8.560;2023-02-23T02:53:50;100092.63;;;8.71;100.00
34931;BME280;21134;49.646;8.560;2023-02-23T02:56:20;100086.69;;;8.70;100.00
34931;BME280;21134;49.646;8.560;2023-02-23T02:58:48;100088.41;;;8.71;100.00
34931;BME280;21134;49.646;8.560;2023-02-23T03:01:17;100087.53;;;8.71;100.00
34931;BME280;21134;49.646;8.560;2023-02-23T03:04:03;100079.88;;;8.71;100.00
34931;BME280;21134;49.646;8.560;2023-02-23T03:06:58;100085.84;;;8.73;100.00
34931;BME280;21134;49.646;8.560;2023-02-23T03:09:51;100085.88;;;8.71;100.00
34931;BME280;21134;49.646;8.560;2023-02-23T03:12:42;100084.16;;;8.72;100.00
34931;BME280;21134;49.646;8.560;2023-02-23T03:15:36;100080.75;;;8.71;100.00
34931;BME280;21134;49.646;8.560;2023-02-23T03:18:39;100085.00;;;8.71;100.00
34931;BME280;21134;49.646;8.560;2023-02-23T03:21:35;100091.78;;;8.70;100.00
34931;BME280;21134;49.646;8.560;2023-02-23T03:24:28;100085.88;;;8.71;100.00
34931;BME280;21134;49.646;8.560;2023-02-23T03:27:22;100080.75;;;8.71;100.00
34931;BME280;21134;49.646;8.560;2023-02-23T03:30:15;100084.16;;;8.73;100.00
34931;BME280;21134;49.646;8.560;2023-02-23T03:33:05;100085.84;;;8.73;100.00
34931;BME280;21134;49.646;8.560;2023-02-23T03:35:54;100080.75;;;8.74;100.00
34931;BME280;21134;49.646;8.560;2023-02-23T03:38:44;100091.81;;;8.75;100.00
34931;BME280;21134;49.646;8.560;2023-02-23T03:41:31;100090.97;;;8.74;100.00
34931;BME280;21134;49.646;8.560;2023-02-23T03:44:22;100085.84;;;8.76;100.00
34931;BME280;21134;49.646;8.560;2023-02-23T03:47:11;100092.66;;;8.77;100.00
34931;BME280;21134;49.646;8.560;2023-02-23T03:49:56;100090.94;;;8.77;100.00
34931;BME280;21134;49.646;8.560;2023-02-23T03:52:45;100082.44;;;8.77;100.00
34931;BME280;21134;49.646;8.560;2023-02-23T03:55:34;100085.00;;;8.77;100.00
34931;BME280;21134;49.646;8.560;2023-02-23T03:58:24;100085.84;;;8.76;100.00
34931;BME280;21134;49.646;8.560;2023-02-23T04:01:13;100087.56;;;8.75;100.00
34931;BME280;21134;49.646;8.560;2023-02-23T04:03:58;100085.84;;;8.76;100.00
34931;BME280;21134;49.646;8.560;2023-02-23T04:06:44;100090.09;;;8.75;100.00
34931;BME280;21134;49.646;8.560;2023-02-23T04:09:30;100088.41;;;8.76;100.00
34931;BME280;21134;49.646;8.560;2023-02-23T04:12:19;100087.56;;;8.75;100.00
34931;BME280;21134;49.646;8.560;2023-02-23T04:15:10;100086.69;;;8.76;100.00
34931;BME280;21134;49.646;8.560;2023-02-23T04:17:40;100091.78;;;8.76;100.00
34931;BME280;21134;49.646;8.560;2023-02-23T04:20:09;100094.34;;;8.76;100.00
34931;BME280;21134;49.646;8.560;2023-02-23T04:22:36;100091.78;;;8.76;100.00
34931;BME280;21134;49.646;8.560;2023-02-23T04:25:04;100079.91;;;8.75;100.00
34931;BME280;21134;49.646;8.560;2023-02-23T04:27:33;100088.41;;;8.76;100.00
34931;BME280;21134;49.646;8.560;2023-02-23T04:29:59;100090.94;;;8.76;100.00
34931;BME280;21134;49.646;8.560;2023-02-23T04:32:27;100088.41;;;8.76;100.00
34931;BME280;21134;49.646;8.560;2023-02-23T04:34:55;100095.19;;;8.77;100.00
34931;BME280;21134;49.646;8.560;2023-02-23T04:37:22;100098.59;;;8.77;100.00
34931;BME280;21134;49.646;8.560;2023-02-23T04:39:48;100094.38;;;8.78;100.00
34931;BME280;21134;49.646;8.560;2023-02-23T04:42:15;100096.91;;;8.78;100.00
34931;BME280;21134;49.646;8.560;2023-02-23T04:44:42;100102.88;;;8.78;100.00
34931;BME280;21134;49.646;8.560;2023-02-23T04:47:09;100102.88;;;8.78;100.00
34931;BME280;21134;49.646;8.560;2023-02-23T04:49:36;100106.25;;;8.79;100.00
34931;BME280;21134;49.646;8.560;2023-02-23T04:52:04;100099.44;;;8.79;100.00
34931;BME280;21134;49.646;8.560;2023-02-23T04:54:31;100103.72;;;8.79;100.00
34931;BME280;21134;49.646;8.560;2023-02-23T04:56:57;100099.44;;;8.79;100.00
34931;BME280;21134;49.646;8.560;2023-02-23T04:59:23;100106.25;;;8.82;100.00
34931;BME280;21134;49.646;8.560;2023-02-23T05:01:51;100105.41;;;8.81;100.00
34931;BME280;21134;49.646;8.560;2023-02-23T05:04:17;100107.13;;;8.81;100.00
34931;BME280;21134;49.646;8.560;2023-02-23T05:06:43;100104.56;;;8.81;100.00
34931;BME280;21134;49.646;8.560;2023-02-23T05:09:11;100098.59;;;8.80;100.00
34931;BME280;21134;49.646;8.560;2023-02-23T05:11:38;100100.31;;;8.81;100.00
34931;BME280;21134;49.646;8.560;2023-02-23T05:14:04;100104.56;;;8.81;100.00
34931;BME280;21134;49.646;8.560;2023-02-23T05:16:31;100105.41;;;8.81;100.00
34931;BME280;21134;49.646;8.560;2023-02-23T05:18:58;100105.41;;;8.81;100.00
34931;BME280;21134;49.646;8.560;2023-02-23T05:21:26;100102.84;;;8.80;100.00
34931;BME280;21134;49.646;8.560;2023-02-23T05:23:52;100100.31;;;8.81;100.00
34931;BME280;21134;49.646;8.560;2023-02-23T05:26:20;100102.03;;;8.81;100.00
34931;BME280;21134;49.646;8.560;2023-02-23T05:28:46;100103.69;;;8.80;100.00
34931;BME280;21134;49.646;8.560;2023-02-23T05:31:13;100104.56;;;8.81;100.00
34931;BME280;21134;49.646;8.560;2023-02-23T05:33:40;100098.59;;;8.83;100.00
34931;BME280;21134;49.646;8.560;2023-02-23T05:36:08;100096.91;;;8.85;100.00
34931;BME280;21134;49.646;8.560;2023-02-23T05:38:36;100107.09;;;8.89;100.00
34931;BME280;21134;49.646;8.560;2023-02-23T05:41:06;100104.56;;;8.85;100.00
34931;BME280;21134;49.646;8.560;2023-02-23T05:43:34;100102.88;;;8.84;100.00
34931;BME280;21134;49.646;8.560;2023-02-23T05:46:05;100103.72;;;8.85;100.00
34931;BME280;21134;49.646;8.560;2023-02-23T05:48:31;100102.84;;;8.83;100.00
34931;BME280;21134;49.646;8.560;2023-02-23T05:51:00;100102.88;;;8.81;100.00
34931;BME280;21134;49.646;8.560;2023-02-23T05:53:26;100102.84;;;8.80;100.00
34931;BME280;21134;49.646;8.560;2023-02-23T05:55:53;100105.41;;;8.78;100.00
34931;BME280;21134;49.646;8.560;2023-02-23T05:58:19;100105.41;;;8.77;100.00
34931;BME280;21134;49.646;8.560;2023-02-23T06:00:47;100107.94;;;8.77;100.00
34931;BME280;21134;49.646;8.560;2023-02-23T06:03:14;100108.78;;;8.77;100.00
34931;BME280;21134;49.646;8.560;2023-02-23T06:05:40;100111.34;;;8.77;100.00
34931;BME280;21134;49.646;8.560;2023-02-23T06:08:07;100108.78;;;8.80;100.00
34931;BME280;21134;49.646;8.560;2023-02-23T06:10:33;100110.50;;;8.80;100.00
34931;BME280;21134;49.646;8.560;2023-02-23T06:13:00;100114.75;;;8.79;100.00
34931;BME280;21134;49.646;8.560;2023-02-23T06:15:27;100114.75;;;8.79;100.00
34931;BME280;21134;49.646;8.560;2023-02-23T06:17:55;100119.00;;;8.79;100.00
34931;BME280;21134;49.646;8.560;2023-02-23T06:20:22;100121.56;;;8.79;100.00
34931;BME280;21134;49.646;8.560;2023-02-23T06:22:48;100115.63;;;8.78;100.00
34931;BME280;21134;49.646;8.560;2023-02-23T06:25:15;100121.56;;;8.79;100.00
34931;BME280;21134;49.646;8.560;2023-02-23T06:27:41;100122.41;;;8.79;100.00
34931;BME280;21134;49.646;8.560;2023-02-23T06:30:10;100127.50;;;8.79;100.00
34931;BME280;21134;49.646;8.560;2023-02-23T06:32:37;100123.25;;;8.80;100.00
34931;BME280;21134;49.646;8.560;2023-02-23T06:35:06;100130.06;;;8.79;100.00
34931;BME280;21134;49.646;8.560;2023-02-23T06:37:34;100130.06;;;8.79;100.00
34931;BME280;21134;49.646;8.560;2023-02-23T06:40:00;100130.91;;;8.80;100.00
34931;BME280;21134;49.646;8.560;2023-02-23T06:42:27;100129.19;;;8.80;100.00
34931;BME280;21134;49.646;8.560;2023-02-23T06:44:53;100137.72;;;8.82;100.00
34931;BME280;21134;49.646;8.560;2023-02-23T06:47:20;100141.97;;;8.83;100.00
34931;BME280;21134;49.646;8.560;2023-02-23T06:49:46;100137.72;;;8.84;100.00
34931;BME280;21134;49.646;8.560;2023-02-23T06:52:14;100141.97;;;8.85;100.00
34931;BME280;21134;49.646;8.560;2023-02-23T06:54:41;100146.22;;;8.88;100.00
34931;BME280;21134;49.646;8.560;2023-02-23T06:57:08;100144.53;;;8.88;100.00
34931;BME280;21134;49.646;8.560;2023-02-23T06:59:34;100142.81;;;8.89;100.00
34931;BME280;21134;49.646;8.560;2023-02-23T07:02:01;100151.34;;;8.91;100.00
34931;BME280;21134;49.646;8.560;2023-02-23T07:04:28;100154.72;;;8.93;100.00
34931;BME280;21134;49.646;8.560;2023-02-23T07:06:55;100150.47;;;8.93;100.00
34931;BME280;21134;49.646;8.560;2023-02-23T07:09:23;100147.94;;;8.95;100.00
34931;BME280;21134;49.646;8.560;2023-02-23T07:11:49;100155.56;;;8.96;100.00
34931;BME280;21134;49.646;8.560;2023-02-23T07:14:16;100160.69;;;8.98;100.00
34931;BME280;21134;49.646;8.560;2023-02-23T07:16:42;100159.00;;;9.00;100.00
34931;BME280;21134;49.646;8.560;2023-02-23T07:19:09;100164.06;;;9.03;100.00
34931;BME280;21134;49.646;8.560;2023-02-23T07:21:35;100161.53;;;9.03;100.00
34931;BME280;21134;49.646;8.560;2023-02-23T07:24:02;100165.78;;;9.05;100.00
34931;BME280;21134;49.646;8.560;2023-02-23T07:26:31;100166.66;;;9.07;100.00
34931;BME280;21134;49.646;8.560;2023-02-23T07:28:59;100172.59;;;9.11;100.00
34931;BME280;21134;49.646;8.560;2023-02-23T07:31:26;100170.03;;;9.14;100.00
34931;BME280;21134;49.646;8.560;2023-02-23T07:33:53;100166.63;;;9.18;100.00
34931;BME280;21134;49.646;8.560;2023-02-23T07:36:20;100173.44;;;9.21;100.00
34931;BME280;21134;49.646;8.560;2023-02-23T07:38:47;100170.88;;;9.24;100.00
34931;BME280;21134;49.646;8.560;2023-02-23T07:41:13;100174.31;;;9.26;100.00
34931;BME280;21134;49.646;8.560;2023-02-23T07:43:41;100175.13;;;9.29;100.00
34931;BME280;21134;49.646;8.560;2023-02-23T07:46:08;100175.13;;;9.31;100.00
34931;BME280;21134;49.646;8.560;2023-02-23T07:48:34;100175.97;;;9.35;100.00
34931;BME280;21134;49.646;8.560;2023-02-23T07:51:01;100183.66;;;9.36;100.00
34931;BME280;21134;49.646;8.560;2023-02-23T07:53:27;100182.78;;;9.40;100.00
34931;BME280;21134;49.646;8.560;2023-02-23T07:55:56;100182.78;;;9.48;100.00
34931;BME280;21134;49.646;8.560;2023-02-23T07:58:23;100189.56;;;9.50;100.00
34931;BME280;21134;49.646;8.560;2023-02-23T08:00:51;100179.34;;;9.50;100.00
34931;BME280;21134;49.646;8.560;2023-02-23T08:03:19;100183.63;;;9.53;100.00
34931;BME280;21134;49.646;8.560;2023-02-23T08:05:45;100192.13;;;9.55;100.00
34931;BME280;21134;49.646;8.560;2023-02-23T08:08:12;100188.72;;;9.56;100.00
34931;BME280;21134;49.646;8.560;2023-02-23T08:10:38;100197.22;;;9.60;100.00
34931;BME280;21134;49.646;8.560;2023-02-23T08:13:05;100187.03;;;9.58;100.00
34931;BME280;21134;49.646;8.560;2023-02-23T08:15:32;100195.53;;;9.59;100.00
34931;BME280;21134;49.646;8.560;2023-02-23T08:18:00;100203.19;;;9.62;100.00
34931;BME280;21134;49.646;8.560;2023-02-23T08:20:26;100203.19;;;9.65;100.00
34931;BME280;21134;49.646;8.560;2023-02-23T08:22:53;100196.38;;;9.67;100.00
34931;BME280;21134;49.646;8.560;2023-02-23T08:25:20;100205.72;;;9.66;100.00
34931;BME280;21134;49.646;8.560;2023-02-23T08:27:47;100198.91;;;9.65;100.00
34931;BME280;21134;49.646;8.560;2023-02-23T08:30:17;100207.44;;;9.67;100.00
34931;BME280;21134;49.646;8.560;2023-02-23T08:32:44;100205.72;;;9.69;100.00
34931;BME280;21134;49.646;8.560;2023-02-23T08:35:13;100209.13;;;9.70;100.00
34931;BME280;21134;49.646;8.560;2023-02-23T08:37:39;100205.72;;;9.71;100.00
34931;BME280;21134;49.646;8.560;2023-02-23T08:40:07;100213.38;;;9.74;100.00
34931;BME280;21134;49.646;8.560;2023-02-23T08:42:34;100211.66;;;9.73;100.00
34931;BME280;21134;49.646;8.560;2023-02-23T08:45:01;100211.69;;;9.71;100.00
34931;BME280;21134;49.646;8.560;2023-02-23T08:47:27;100214.22;;;9.73;100.00
34931;BME280;21134;49.646;8.560;2023-02-23T08:49:54;100207.44;;;9.73;100.00
34931;BME280;21134;49.646;8.560;2023-02-23T08:52:22;100212.53;;;9.75;100.00
34931;BME280;21134;49.646;8.560;2023-02-23T08:54:49;100209.97;;;9.80;100.00
34931;BME280;21134;49.646;8.560;2023-02-23T08:57:16;100214.19;;;9.82;100.00
34931;BME280;21134;49.646;8.560;2023-02-23T08:59:43;100208.22;;;9.88;100.00
34931;BME280;21134;49.646;8.560;2023-02-23T09:02:11;100211.63;;;9.93;100.00
34931;BME280;21134;49.646;8.560;2023-02-23T09:04:38;100212.47;;;9.99;100.00
34931;BME280;21134;49.646;8.560;2023-02-23T09:07:06;100212.44;;;10.07;100.00
34931;BME280;21134;49.646;8.560;2023-02-23T09:09:35;100213.25;;;10.15;100.00
34931;BME280;21134;49.646;8.560;2023-02-23T09:12:01;100219.19;;;10.27;100.00
34931;BME280;21134;49.646;8.560;2023-02-23T09:14:28;100214.91;;;10.38;100.00
34931;BME280;21134;49.646;8.560;2023-02-23T09:16:54;100220.81;;;10.51;100.00
34931;BME280;21134;49.646;8.560;2023-02-23T09:19:21;100219.91;;;10.58;100.00
34931;BME280;21134;49.646;8.560;2023-02-23T09:21:47;100225.00;;;10.61;100.00
34931;BME280;21134;49.646;8.560;2023-02-23T09:24:13;100223.28;;;10.67;100.00
34931;BME280;21134;49.646;8.560;2023-02-23T09:26:44;100227.50;;;10.71;100.00
34931;BME280;21134;49.646;8.560;2023-02-23T09:29:10;100225.75;;;10.78;100.00
34931;BME280;21134;49.646;8.560;2023-02-23T09:31:37;100234.25;;;10.83;100.00
34931;BME280;21134;49.646;8.560;2023-02-23T09:34:03;100233.38;;;10.89;100.00
34931;BME280;21134;49.646;8.560;2023-02-23T09:36:30;100225.69;;;10.92;100.00
34931;BME280;21134;49.646;8.560;2023-02-23T09:38:57;100230.81;;;10.92;100.00
34931;BME280;21134;49.646;8.560;2023-02-23T09:42:04;100226.47;;;11.00;100.00
34931;BME280;21134;49.646;8.560;2023-02-23T09:44:42;100236.66;;;11.11;100.00
34931;BME280;21134;49.646;8.560;2023-02-23T09:47:28;100236.59;;;11.20;100.00
34931;BME280;21134;49.646;8.560;2023-02-23T09:49:58;100236.50;;;11.31;100.00
34931;BME280;21134;49.646;8.560;2023-02-23T09:52:35;100234.69;;;11.40;100.00
34931;BME280;21134;49.646;8.560;2023-02-23T09:55:04;100238.09;;;11.43;100.00
34931;BME280;21134;49.646;8.560;2023-02-23T09:57:35;100232.03;;;11.51;100.00
34931;BME280;21134;49.646;8.560;2023-02-23T10:00:03;100235.47;;;11.50;100.00
34931;BME280;21134;49.646;8.560;2023-02-23T10:02:37;100238.88;;;11.51;100.00
34931;BME280;21134;49.646;8.560;2023-02-23T10:05:11;100238.00;;;11.53;100.00
34931;BME280;21134;49.646;8.560;2023-02-23T10:07:44;100239.72;;;11.51;100.00
34931;BME280;21134;49.646;8.560;2023-02-23T10:10:19;100247.38;;;11.54;100.00
34931;BME280;21134;49.646;8.560;2023-02-23T10:12:56;100241.41;;;11.54;100.00
34931;BME280;21134;49.646;8.560;2023-02-23T10:15:33;100245.66;;;11.55;100.00
34931;BME280;21134;49.646;8.560;2023-02-23T10:18:10;100241.31;;;11.63;100.00
34931;BME280;21134;49.646;8.560;2023-02-23T10:20:43;100246.44;;;11.66;100.00
34931;BME280;21134;49.646;8.560;2023-02-23T10:23:14;100244.56;;;11.82;100.00
34931;BME280;21134;49.646;8.560;2023-02-23T10:25:45;100234.31;;;11.80;100.00
34931;BME280;21134;49.646;8.560;2023-02-23T10:28:15;100240.28;;;11.85;100.00
34931;BME280;21134;49.646;8.560;2023-02-23T10:30:42;100246.19;;;11.92;100.00
34931;BME280;21134;49.646;8.560;2023-02-23T10:33:13;100234.09;;;12.05;100.00
34931;BME280;21134;49.646;8.560;2023-02-23T10:35:42;100241.63;;;12.20;97.56
34931;BME280;21134;49.646;8.560;2023-02-23T10:38:13;100239.06;;;12.20;95.56
34931;BME280;21134;49.646;8.560;2023-02-23T10:40:42;100241.38;;;12.40;96.20
34931;BME280;21134;49.646;8.560;2023-02-23T10:43:10;100241.03;;;12.68;95.82
34931;BME280;21134;49.646;8.560;2023-02-23T10:45:43;100241.81;;;12.71;92.78
34931;BME280;21134;49.646;8.560;2023-02-23T10:48:15;100245.38;;;12.61;95.81
34931;BME280;21134;49.646;8.560;2023-02-23T10:50:43;100243.84;;;12.48;94.58
34931;BME280;21134;49.646;8.560;2023-02-23T10:53:16;100244.09;;;12.26;94.84
34931;BME280;21134;49.646;8.560;2023-02-23T10:55:45;100248.50;;;12.17;95.30
34931;BME280;21134;49.646;8.560;2023-02-23T10:58:14;100245.72;;;12.35;92.24
34931;BME280;21134;49.646;8.560;2023-02-23T11:00:51;100243.38;;;12.15;92.66
34931;BME280;21134;49.646;8.560;2023-02-23T11:03:23;100252.03;;;12.06;93.40
34931;BME280;21134;49.646;8.560;2023-02-23T11:05:51;100253.63;;;12.15;92.01
34931;BME280;21134;49.646;8.560;2023-02-23T11:08:21;100247.66;;;12.15;90.09
34931;BME280;21134;49.646;8.560;2023-02-23T11:11:19;100249.28;;;12.22;90.66
34931;BME280;21134;49.646;8.560;2023-02-23T11:13:50;100242.47;;;12.21;91.56
34931;BME280;21134;49.646;8.560;2023-02-23T11:16:19;100243.97;;;12.39;89.96
34931;BME280;21134;49.646;8.560;2023-02-23T11:18:51;100243.13;;;12.38;89.32
34931;BME280;21134;49.646;8.560;2023-02-23T11:21:22;100236.19;;;12.45;89.29
34931;BME280;21134;49.646;8.560;2023-02-23T11:23:50;100238.56;;;12.59;86.83
34931;BME280;21134;49.646;8.560;2023-02-23T11:26:37;100231.63;;;12.65;86.34
34931;BME280;21134;49.646;8.560;2023-02-23T11:29:13;100231.66;;;12.64;85.11
34931;BME280;21134;49.646;8.560;2023-02-23T11:31:46;100229.91;;;12.66;84.55
34931;BME280;21134;49.646;8.560;2023-02-23T11:34:21;100225.53;;;12.72;85.55
34931;BME280;21134;49.646;8.560;2023-02-23T11:36:58;100227.25;;;12.73;84.49
34931;BME280;21134;49.646;8.560;2023-02-23T11:39:25;100223.72;;;12.80;84.19
34931;BME280;21134;49.646;8.560;2023-02-23T11:42:12;100214.22;;;12.87;84.66
34931;BME280;21134;49.646;8.560;2023-02-23T11:44:41;100218.09;;;13.13;83.92
34931;BME280;21134;49.646;8.560;2023-02-23T11:47:15;100216.94;;;13.32;79.99
34931;BME280;21134;49.646;8.560;2023-02-23T11:49:44;100213.69;;;13.21;80.69
34931;BME280;21134;49.646;8.560;2023-02-23T11:52:14;100213.09;;;13.05;80.92
34931;BME280;21134;49.646;8.560;2023-02-23T11:54:49;100217.25;;;13.11;81.28
34931;BME280;21134;49.646;8.560;2023-02-23T11:57:20;100217.16;;;13.18;80.03
34931;BME280;21134;49.646;8.560;2023-02-23T11:59:47;100214.47;;;13.26;78.23
34931;BME280;21134;49.646;8.560;2023-02-23T12:02:21;100211.94;;;13.23;78.56
34931;BME280;21134;49.646;8.560;2023-02-23T12:04:50;100209.50;;;13.15;78.86
34931;BME280;21134;49.646;8.560;2023-02-23T12:07:24;100211.22;;;13.15;78.74
34931;BME280;21134;49.646;8.560;2023-02-23T12:09:59;100211.22;;;13.13;80.19
34931;BME280;21134;49.646;8.560;2023-02-23T12:12:28;100201.69;;;13.20;78.74
34931;BME280;21134;49.646;8.560;2023-02-23T12:14:59;100204.22;;;13.26;79.27
34931;BME280;21134;49.646;8.560;2023-02-23T12:17:37;100198.06;;;13.35;78.78
34931;BME280;21134;49.646;8.560;2023-02-23T12:20:11;100199.44;;;13.53;77.58
34931;BME280;21134;49.646;8.560;2023-02-23T12:22:44;100195.78;;;13.67;77.11
34931;BME280;21134;49.646;8.560;2023-02-23T12:25:19;100197.41;;;13.71;76.07
34931;BME280;21134;49.646;8.560;2023-02-23T12:27:51;100196.44;;;13.79;76.48
34931;BME280;21134;49.646;8.560;2023-02-23T12:30:25;100184.25;;;13.87;76.61
34931;BME280;21134;49.646;8.560;2023-02-23T12:32:57;100192.00;;;13.85;75.37
34931;BME280;21134;49.646;8.560;2023-02-23T12:35:30;100187.81;;;13.80;75.71
34931;BME280;21134;49.646;8.560;2023-02-23T12:38:01;100183.38;;;13.88;75.64
34931;BME280;21134;49.646;8.560;2023-02-23T12:40:33;100181.75;;;13.84;75.36
34931;BME280;21134;49.646;8.560;2023-02-23T12:43:03;100181.66;;;13.88;74.95
34931;BME280;21134;49.646;8.560;2023-02-23T12:45:36;100179.22;;;13.82;75.24
34931;BME280;21134;49.646;8.560;2023-02-23T12:48:13;100181.00;;;13.79;74.80
34931;BME280;21134;49.646;8.560;2023-02-23T12:50:49;100176.78;;;13.75;75.67
34931;BME280;21134;49.646;8.560;2023-02-23T12:53:20;100171.63;;;13.75;73.82
34931;BME280;21134;49.646;8.560;2023-02-23T12:55:59;100181.84;;;13.78;74.12
34931;BME280;21134;49.646;8.560;2023-02-23T12:58:36;100177.69;;;13.72;74.97
34931;BME280;21134;49.646;8.560;2023-02-23T13:01:07;100173.41;;;13.71;74.88
34931;BME280;21134;49.646;8.560;2023-02-23T13:03:52;100172.41;;;13.78;73.17
34931;BME280;21134;49.646;8.560;2023-02-23T13:06:26;100176.78;;;13.75;74.29
34931;BME280;21134;49.646;8.560;2023-02-23T13:09:02;100173.34;;;13.74;74.01
34931;BME280;21134;49.646;8.560;2023-02-23T13:11:45;100178.53;;;13.72;73.22